sensor_id;sensor_type;location;lat;lon;timestamp;pressure;altitude;pressure_sealevel;temperature;humidity
48606;BME280;8482;54.396;18.590;2022-10-31T00:01:00;101781.59;;;10.15;79.06
48606;BME280;8482;54.396;18.590;2022-10-31T00:03:26;101771.81;;;10.16;79.21
48606;BME280;8482;54.396;18.590;2022-10-31T00:05:53;101772.69;;;10.16;79.17
48606;BME280;8482;54.396;18.590;2022-10-31T00:08:19;101773.53;;;10.17;79.07
48606;BME280;8482;54.396;18.590;2022-10-31T00:10:45;101773.63;;;10.15;78.63
48606;BME280;8482;54.396;18.590;2022-10-31T00:13:13;101772.09;;;10.11;78.29
48606;BME280;8482;54.396;18.590;2022-10-31T00:15:40;101774.75;;;10.11;78.08
48606;BME280;8482;54.396;18.590;2022-10-31T00:18:08;101769.44;;;10.11;78.08
48606;BME280;8482;54.396;18.590;2022-10-31T00:20:35;101774.84;;;10.09;77.95
48606;BME280;8482;54.396;18.590;2022-10-31T00:23:03;101768.03;;;10.05;77.87
48606;BME280;8482;54.396;18.590;2022-10-31T00:25:35;101772.38;;;10.06;77.62
48606;BME280;8482;54.396;18.590;2022-10-31T00:28:03;101778.72;;;10.04;77.37
48606;BME280;8482;54.396;18.590;2022-10-31T00:30:29;101773.88;;;9.96;76.80
48606;BME280;8482;54.396;18.590;2022-10-31T00:32:55;101775.78;;;9.94;76.82
48606;BME280;8482;54.396;18.590;2022-10-31T00:35:21;101775.66;;;9.95;77.10
48606;BME280;8482;54.396;18.590;2022-10-31T00:37:47;101779.38;;;9.93;77.10
48606;BME280;8482;54.396;18.590;2022-10-31T00:40:13;101771.88;;;9.85;77.15
48606;BME280;8482;54.396;18.590;2022-10-31T00:42:40;101779.72;;;9.87;77.04
48606;BME280;8482;54.396;18.590;2022-10-31T00:45:09;101764.19;;;9.80;77.06
48606;BME280;8482;54.396;18.590;2022-10-31T00:47:35;101775.56;;;9.82;76.93
48606;BME280;8482;54.396;18.590;2022-10-31T00:50:02;101772.16;;;9.80;77.00
48606;BME280;8482;54.396;18.590;2022-10-31T00:52:28;101780.19;;;9.79;76.74
48606;BME280;8482;54.396;18.590;2022-10-31T00:54:54;101784.63;;;9.78;76.86
48606;BME280;8482;54.396;18.590;2022-10-31T00:57:20;101771.56;;;9.75;76.90
48606;BME280;8482;54.396;18.590;2022-10-31T00:59:45;101790.97;;;9.76;77.35
48606;BME280;8482;54.396;18.590;2022-10-31T01:02:11;101788.41;;;9.74;77.46
48606;BME280;8482;54.396;18.590;2022-10-31T01:04:37;101781.31;;;9.75;77.95
48606;BME280;8482;54.396;18.590;2022-10-31T01:07:03;101784.81;;;9.75;78.44
48606;BME280;8482;54.396;18.590;2022-10-31T01:09:29;101784.72;;;9.77;78.46
48606;BME280;8482;54.396;18.590;2022-10-31T01:11:55;101785.69;;;9.76;78.38
48606;BME280;8482;54.396;18.590;2022-10-31T01:14:20;101782.44;;;9.71;78.26
48606;BME280;8482;54.396;18.590;2022-10-31T01:16:46;101779.00;;;9.69;78.09
48606;BME280;8482;54.396;18.590;2022-10-31T01:19:12;101794.84;;;9.70;77.72
48606;BME280;8482;54.396;18.590;2022-10-31T01:21:38;101797.66;;;9.67;77.60
48606;BME280;8482;54.396;18.590;2022-10-31T01:24:04;101798.69;;;9.64;77.88
48606;BME280;8482;54.396;18.590;2022-10-31T01:26:32;101796.91;;;9.65;77.75
48606;BME280;8482;54.396;18.590;2022-10-31T01:29:05;101797.75;;;9.65;77.89
48606;BME280;8482;54.396;18.590;2022-10-31T01:31:37;101786.41;;;9.63;77.76
48606;BME280;8482;54.396;18.590;2022-10-31T01:34:04;101792.72;;;9.61;78.01
48606;BME280;8482;54.396;18.590;2022-10-31T01:36:39;101791.75;;;9.62;78.37
48606;BME280;8482;54.396;18.590;2022-10-31T01:39:12;101791.88;;;9.60;78.53
48606;BME280;8482;54.396;18.590;2022-10-31T01:41:44;101788.28;;;9.61;78.82
48606;BME280;8482;54.396;18.590;2022-10-31T01:46:46;101797.50;;;9.70;80.21
48606;BME280;8482;54.396;18.590;2022-10-31T01:52:03;101794.56;;;9.75;80.43
48606;BME280;8482;54.396;18.590;2022-10-31T01:54:37;101787.47;;;9.75;80.20
48606;BME280;8482;54.396;18.590;2022-10-31T01:57:10;101786.44;;;9.78;80.37
48606;BME280;8482;54.396;18.590;2022-10-31T01:59:46;101790.81;;;9.79;80.30
48606;BME280;8482;54.396;18.590;2022-10-31T02:02:15;101793.34;;;9.80;80.53
48606;BME280;8482;54.396;18.590;2022-10-31T02:04:43;101795.06;;;9.81;80.50
48606;BME280;8482;54.396;18.590;2022-10-31T02:07:18;101797.44;;;9.86;80.86
48606;BME280;8482;54.396;18.590;2022-10-31T02:09:49;101794.59;;;9.89;81.40
48606;BME280;8482;54.396;18.590;2022-10-31T02:12:17;101804.00;;;9.95;81.73
48606;BME280;8482;54.396;18.590;2022-10-31T02:14:43;101798.50;;;9.98;82.36
48606;BME280;8482;54.396;18.590;2022-10-31T02:17:09;101792.25;;;9.99;83.06
48606;BME280;8482;54.396;18.590;2022-10-31T02:20:05;101800.44;;;10.10;83.41
48606;BME280;8482;54.396;18.590;2022-10-31T02:28:10;101797.78;;;10.25;84.20
48606;BME280;8482;54.396;18.590;2022-10-31T02:31:18;101795.81;;;10.28;84.16
48606;BME280;8482;54.396;18.590;2022-10-31T02:36:53;101794.66;;;10.33;84.30
48606;BME280;8482;54.396;18.590;2022-10-31T02:40:24;101807.47;;;10.40;84.31
48606;BME280;8482;54.396;18.590;2022-10-31T02:42:47;101805.69;;;10.41;84.20
48606;BME280;8482;54.396;18.590;2022-10-31T02:45:26;101807.22;;;10.45;83.99
48606;BME280;8482;54.396;18.590;2022-10-31T02:47:58;101811.75;;;10.43;83.86
48606;BME280;8482;54.396;18.590;2022-10-31T02:50:32;101816.78;;;10.48;83.85
48606;BME280;8482;54.396;18.590;2022-10-31T02:53:01;101814.88;;;10.50;83.98
48606;BME280;8482;54.396;18.590;2022-10-31T02:58:15;101805.59;;;10.57;83.99
48606;BME280;8482;54.396;18.590;2022-10-31T03:09:33;101809.75;;;10.61;84.16
48606;BME280;8482;54.396;18.590;2022-10-31T03:12:32;101813.84;;;10.67;84.60
48606;BME280;8482;54.396;18.590;2022-10-31T03:15:19;101821.59;;;10.70;84.90
48606;BME280;8482;54.396;18.590;2022-10-31T03:18:05;101824.03;;;10.73;84.85
48606;BME280;8482;54.396;18.590;2022-10-31T03:21:44;101825.00;;;10.72;85.24
48606;BME280;8482;54.396;18.590;2022-10-31T03:24:14;101823.84;;;10.76;85.27
48606;BME280;8482;54.396;18.590;2022-10-31T03:26:52;101828.97;;;10.79;85.26
48606;BME280;8482;54.396;18.590;2022-10-31T03:29:25;101840.38;;;10.81;85.51
48606;BME280;8482;54.396;18.590;2022-10-31T03:32:06;101849.94;;;10.84;85.56
48606;BME280;8482;54.396;18.590;2022-10-31T03:34:37;101843.78;;;10.83;85.54
48606;BME280;8482;54.396;18.590;2022-10-31T03:37:08;101851.44;;;10.88;85.91
48606;BME280;8482;54.396;18.590;2022-10-31T03:39:38;101840.06;;;10.86;85.97
48606;BME280;8482;54.396;18.590;2022-10-31T03:42:12;101844.25;;;10.90;85.55
48606;BME280;8482;54.396;18.590;2022-10-31T03:44:46;101838.19;;;10.88;85.49
48606;BME280;8482;54.396;18.590;2022-10-31T03:47:12;101832.00;;;10.87;85.38
48606;BME280;8482;54.396;18.590;2022-10-31T03:49:39;101830.97;;;10.90;85.62
48606;BME280;8482;54.396;18.590;2022-10-31T03:54:57;101837.88;;;10.93;85.80
48606;BME280;8482;54.396;18.590;2022-10-31T03:58:01;101822.44;;;10.85;85.73
48606;BME280;8482;54.396;18.590;2022-10-31T04:00:31;101841.38;;;10.93;85.99
48606;BME280;8482;54.396;18.590;2022-10-31T04:03:15;101834.16;;;10.95;85.73
48606;BME280;8482;54.396;18.590;2022-10-31T04:05:46;101838.53;;;10.96;86.19
48606;BME280;8482;54.396;18.590;2022-10-31T04:08:20;101840.34;;;10.96;86.28
48606;BME280;8482;54.396;18.590;2022-10-31T04:10:49;101838.53;;;10.96;86.09
48606;BME280;8482;54.396;18.590;2022-10-31T04:13:24;101833.78;;;11.01;86.11
48606;BME280;8482;54.396;18.590;2022-10-31T04:15:54;101833.78;;;11.01;86.54
48606;BME280;8482;54.396;18.590;2022-10-31T04:18:22;101837.22;;;11.03;86.41
48606;BME280;8482;54.396;18.590;2022-10-31T04:20:48;101834.44;;;11.05;86.35
48606;BME280;8482;54.396;18.590;2022-10-31T04:23:22;101836.03;;;11.08;86.22
48606;BME280;8482;54.396;18.590;2022-10-31T04:25:49;101836.03;;;11.08;86.19
48606;BME280;8482;54.396;18.590;2022-10-31T04:28:15;101830.72;;;11.08;86.27
48606;BME280;8482;54.396;18.590;2022-10-31T04:30:41;101834.16;;;11.10;86.65
48606;BME280;8482;54.396;18.590;2022-10-31T04:33:07;101828.00;;;11.09;86.59
48606;BME280;8482;54.396;18.590;2022-10-31T04:35:33;101826.94;;;11.12;86.72
48606;BME280;8482;54.396;18.590;2022-10-31T04:37:58;101828.75;;;11.11;87.03
48606;BME280;8482;54.396;18.590;2022-10-31T04:40:24;101826.09;;;11.11;87.19
48606;BME280;8482;54.396;18.590;2022-10-31T04:42:50;101831.31;;;11.13;87.00
48606;BME280;8482;54.396;18.590;2022-10-31T04:45:16;101828.53;;;11.14;87.34
48606;BME280;8482;54.396;18.590;2022-10-31T04:47:42;101826.94;;;11.12;87.54
48606;BME280;8482;54.396;18.590;2022-10-31T04:50:08;101832.81;;;11.17;87.85
48606;BME280;8482;54.396;18.590;2022-10-31T04:52:40;101821.25;;;11.18;87.76
48606;BME280;8482;54.396;18.590;2022-10-31T04:55:06;101817.63;;;11.19;87.97
48606;BME280;8482;54.396;18.590;2022-10-31T04:57:39;101808.69;;;11.20;87.77
48606;BME280;8482;54.396;18.590;2022-10-31T05:00:06;101815.84;;;11.19;87.89
48606;BME280;8482;54.396;18.590;2022-10-31T05:02:32;101810.41;;;11.21;87.81
48606;BME280;8482;54.396;18.590;2022-10-31T05:04:57;101806.03;;;11.20;88.05
48606;BME280;8482;54.396;18.590;2022-10-31T05:07:23;101810.09;;;11.26;88.17
48606;BME280;8482;54.396;18.590;2022-10-31T05:09:49;101811.09;;;11.25;88.00
48606;BME280;8482;54.396;18.590;2022-10-31T05:12:15;101809.91;;;11.29;88.26
48606;BME280;8482;54.396;18.590;2022-10-31T05:14:41;101799.19;;;11.30;88.19
48606;BME280;8482;54.396;18.590;2022-10-31T05:17:06;101797.38;;;11.31;88.04
48606;BME280;8482;54.396;18.590;2022-10-31T05:19:32;101789.41;;;11.31;88.71
48606;BME280;8482;54.396;18.590;2022-10-31T05:21:58;101799.94;;;11.32;88.77
48606;BME280;8482;54.396;18.590;2022-10-31T05:24:24;101791.00;;;11.33;88.64
48606;BME280;8482;54.396;18.590;2022-10-31T05:26:50;101810.16;;;11.39;88.41
48606;BME280;8482;54.396;18.590;2022-10-31T05:29:15;101811.88;;;11.40;88.60
48606;BME280;8482;54.396;18.590;2022-10-31T05:31:41;101809.09;;;11.41;88.67
48606;BME280;8482;54.396;18.590;2022-10-31T05:34:07;101808.28;;;11.41;88.72
48606;BME280;8482;54.396;18.590;2022-10-31T05:36:33;101801.78;;;11.45;88.99
48606;BME280;8482;54.396;18.590;2022-10-31T05:38:59;101806.13;;;11.46;89.23
48606;BME280;8482;54.396;18.590;2022-10-31T05:41:24;101798.94;;;11.48;88.93
48606;BME280;8482;54.396;18.590;2022-10-31T05:43:50;101798.94;;;11.48;88.74
48606;BME280;8482;54.396;18.590;2022-10-31T05:46:16;101805.09;;;11.48;88.92
48606;BME280;8482;54.396;18.590;2022-10-31T05:48:42;101813.84;;;11.50;88.85
48606;BME280;8482;54.396;18.590;2022-10-31T05:51:07;101812.22;;;11.48;89.14
48606;BME280;8482;54.396;18.590;2022-10-31T05:53:33;101825.09;;;11.54;89.20
48606;BME280;8482;54.396;18.590;2022-10-31T05:55:59;101832.13;;;11.55;88.82
48606;BME280;8482;54.396;18.590;2022-10-31T05:58:25;101831.25;;;11.55;89.19
48606;BME280;8482;54.396;18.590;2022-10-31T06:00:51;101831.91;;;11.58;89.36
48606;BME280;8482;54.396;18.590;2022-10-31T06:03:16;101831.81;;;11.60;89.19
48606;BME280;8482;54.396;18.590;2022-10-31T06:05:42;101837.03;;;11.61;89.16
48606;BME280;8482;54.396;18.590;2022-10-31T06:08:08;101837.03;;;11.61;89.35
48606;BME280;8482;54.396;18.590;2022-10-31T06:10:34;101847.47;;;11.64;89.69
48606;BME280;8482;54.396;18.590;2022-10-31T06:13:00;101842.25;;;11.63;89.47
48606;BME280;8482;54.396;18.590;2022-10-31T06:15:25;101843.66;;;11.69;89.38
48606;BME280;8482;54.396;18.590;2022-10-31T06:18:03;101842.59;;;11.71;89.50
48606;BME280;8482;54.396;18.590;2022-10-31T06:20:30;101842.59;;;11.71;89.68
48606;BME280;8482;54.396;18.590;2022-10-31T06:22:56;101849.41;;;11.75;89.88
48606;BME280;8482;54.396;18.590;2022-10-31T06:25:22;101846.66;;;11.77;89.89
48606;BME280;8482;54.396;18.590;2022-10-31T06:27:48;101840.50;;;11.76;89.74
48606;BME280;8482;54.396;18.590;2022-10-31T06:30:14;101847.28;;;11.80;90.09
48606;BME280;8482;54.396;18.590;2022-10-31T06:32:40;101843.59;;;11.83;90.09
48606;BME280;8482;54.396;18.590;2022-10-31T06:35:06;101837.31;;;11.84;90.42
48606;BME280;8482;54.396;18.590;2022-10-31T06:37:32;101831.00;;;11.85;90.36
48606;BME280;8482;54.396;18.590;2022-10-31T06:39:58;101833.41;;;11.90;90.44
48606;BME280;8482;54.396;18.590;2022-10-31T06:42:24;101848.28;;;11.92;90.17
48606;BME280;8482;54.396;18.590;2022-10-31T06:44:50;101841.91;;;11.95;90.50
48606;BME280;8482;54.396;18.590;2022-10-31T06:47:16;101843.47;;;11.98;90.29
48606;BME280;8482;54.396;18.590;2022-10-31T06:49:41;101847.88;;;11.99;90.50
48606;BME280;8482;54.396;18.590;2022-10-31T06:52:07;101851.41;;;11.99;90.36
48606;BME280;8482;54.396;18.590;2022-10-31T06:54:33;101844.06;;;12.03;90.65
48606;BME280;8482;54.396;18.590;2022-10-31T06:56:59;101855.25;;;12.08;90.90
48606;BME280;8482;54.396;18.590;2022-10-31T06:59:25;101860.47;;;12.09;91.07
48606;BME280;8482;54.396;18.590;2022-10-31T07:01:51;101860.25;;;12.13;90.79
48606;BME280;8482;54.396;18.590;2022-10-31T07:04:16;101853.88;;;12.15;91.02
48606;BME280;8482;54.396;18.590;2022-10-31T07:06:42;101847.91;;;12.11;91.48
48606;BME280;8482;54.396;18.590;2022-10-31T07:09:08;101864.31;;;12.18;91.00
48606;BME280;8482;54.396;18.590;2022-10-31T07:11:34;101862.19;;;12.23;91.67
48606;BME280;8482;54.396;18.590;2022-10-31T07:14:00;101859.41;;;12.25;91.52
48606;BME280;8482;54.396;18.590;2022-10-31T07:16:26;101859.09;;;12.30;91.63
48606;BME280;8482;54.396;18.590;2022-10-31T07:18:52;101861.34;;;12.36;91.64
48606;BME280;8482;54.396;18.590;2022-10-31T07:21:18;101869.97;;;12.39;91.80
48606;BME280;8482;54.396;18.590;2022-10-31T07:23:47;101858.25;;;12.42;91.80
48606;BME280;8482;54.396;18.590;2022-10-31T07:26:13;101858.06;;;12.45;91.86
48606;BME280;8482;54.396;18.590;2022-10-31T07:28:39;101864.13;;;12.47;92.16
48606;BME280;8482;54.396;18.590;2022-10-31T07:31:05;101873.38;;;12.54;92.42
48606;BME280;8482;54.396;18.590;2022-10-31T07:33:31;101880.19;;;12.59;92.71
48606;BME280;8482;54.396;18.590;2022-10-31T07:35:56;101875.38;;;12.64;92.41
48606;BME280;8482;54.396;18.590;2022-10-31T07:38:22;101871.75;;;12.65;92.75
48606;BME280;8482;54.396;18.590;2022-10-31T07:40:52;101877.50;;;12.71;92.75
48606;BME280;8482;54.396;18.590;2022-10-31T07:43:18;101877.22;;;12.76;93.26
48606;BME280;8482;54.396;18.590;2022-10-31T07:45:52;101878.69;;;12.80;93.19
48606;BME280;8482;54.396;18.590;2022-10-31T07:48:19;101880.28;;;12.83;93.32
48606;BME280;8482;54.396;18.590;2022-10-31T07:50:45;101876.66;;;12.84;93.37
48606;BME280;8482;54.396;18.590;2022-10-31T07:53:13;101880.59;;;12.91;93.36
48606;BME280;8482;54.396;18.590;2022-10-31T07:55:40;101878.56;;;12.95;93.02
48606;BME280;8482;54.396;18.590;2022-10-31T07:58:14;101876.63;;;12.97;93.15
48606;BME280;8482;54.396;18.590;2022-10-31T08:00:43;101878.00;;;13.02;93.30
48606;BME280;8482;54.396;18.590;2022-10-31T08:03:16;101869.06;;;13.03;93.15
48606;BME280;8482;54.396;18.590;2022-10-31T08:05:43;101877.47;;;13.10;93.37
48606;BME280;8482;54.396;18.590;2022-10-31T08:08:12;101876.28;;;13.14;93.61
48606;BME280;8482;54.396;18.590;2022-10-31T08:10:39;101865.84;;;13.11;93.21
48606;BME280;8482;54.396;18.590;2022-10-31T08:13:11;101874.88;;;13.22;93.55
48606;BME280;8482;54.396;18.590;2022-10-31T08:15:38;101875.84;;;13.21;93.34
48606;BME280;8482;54.396;18.590;2022-10-31T08:18:14;101885.81;;;13.30;93.49
48606;BME280;8482;54.396;18.590;2022-10-31T08:20:41;101876.88;;;13.31;93.24
48606;BME280;8482;54.396;18.590;2022-10-31T08:23:11;101876.56;;;13.36;93.19
48606;BME280;8482;54.396;18.590;2022-10-31T08:25:37;101870.97;;;13.39;93.04
48606;BME280;8482;54.396;18.590;2022-10-31T08:28:04;101872.63;;;13.41;93.06
48606;BME280;8482;54.396;18.590;2022-10-31T08:30:33;101876.00;;;13.43;93.15
48606;BME280;8482;54.396;18.590;2022-10-31T08:33:05;101887.06;;;13.50;93.04
48606;BME280;8482;54.396;18.590;2022-10-31T08:35:32;101876.41;;;13.50;92.52
48606;BME280;8482;54.396;18.590;2022-10-31T08:37:59;101879.59;;;13.55;92.61
48606;BME280;8482;54.396;18.590;2022-10-31T08:40:27;101878.41;;;13.59;92.75
48606;BME280;8482;54.396;18.590;2022-10-31T08:43:02;101880.94;;;13.61;92.37
48606;BME280;8482;54.396;18.590;2022-10-31T08:45:30;101885.84;;;13.67;92.50
48606;BME280;8482;54.396;18.590;2022-10-31T08:48:03;101891.91;;;13.69;92.07
48606;BME280;8482;54.396;18.590;2022-10-31T08:50:32;101886.59;;;13.69;92.16
48606;BME280;8482;54.396;18.590;2022-10-31T08:53:07;101886.31;;;13.72;91.57
48606;BME280;8482;54.396;18.590;2022-10-31T08:55:35;101885.97;;;13.77;91.68
48606;BME280;8482;54.396;18.590;2022-10-31T08:58:06;101888.44;;;13.80;91.48
48606;BME280;8482;54.396;18.590;2022-10-31T09:00:34;101885.53;;;13.83;91.53
48606;BME280;8482;54.396;18.590;2022-10-31T09:03:06;101889.53;;;13.77;91.40
48606;BME280;8482;54.396;18.590;2022-10-31T09:05:34;101883.50;;;13.87;90.93
48606;BME280;8482;54.396;18.590;2022-10-31T09:08:03;101879.63;;;13.91;91.12
48606;BME280;8482;54.396;18.590;2022-10-31T09:10:34;101878.66;;;13.92;90.83
48606;BME280;8482;54.396;18.590;2022-10-31T09:13:21;101880.03;;;13.98;90.72
48606;BME280;8482;54.396;18.590;2022-10-31T09:15:49;101872.75;;;14.00;90.61
48606;BME280;8482;54.396;18.590;2022-10-31T09:18:18;101874.19;;;14.04;90.73
48606;BME280;8482;54.396;18.590;2022-10-31T09:20:47;101885.53;;;14.07;90.85
48606;BME280;8482;54.396;18.590;2022-10-31T09:23:15;101879.31;;;14.07;90.76
48606;BME280;8482;54.396;18.590;2022-10-31T09:25:41;101880.78;;;14.11;90.18
48606;BME280;8482;54.396;18.590;2022-10-31T09:28:11;101881.53;;;14.13;89.99
48606;BME280;8482;54.396;18.590;2022-10-31T09:30:38;101882.38;;;14.14;90.00
48606;BME280;8482;54.396;18.590;2022-10-31T09:33:10;101882.97;;;14.17;89.79
48606;BME280;8482;54.396;18.590;2022-10-31T09:35:37;101879.59;;;14.15;89.40
48606;BME280;8482;54.396;18.590;2022-10-31T09:38:25;101869.75;;;14.16;89.27
48606;BME280;8482;54.396;18.590;2022-10-31T09:46:56;101885.94;;;14.25;88.93
48606;BME280;8482;54.396;18.590;2022-10-31T09:52:40;101883.25;;;14.25;88.48
48606;BME280;8482;54.396;18.590;2022-10-31T09:55:41;101888.47;;;14.27;88.46
48606;BME280;8482;54.396;18.590;2022-10-31T09:58:19;101890.03;;;14.30;88.31
48606;BME280;8482;54.396;18.590;2022-10-31T10:00:47;101897.94;;;14.31;88.35
48606;BME280;8482;54.396;18.590;2022-10-31T10:03:46;101906.69;;;14.33;88.00
48606;BME280;8482;54.396;18.590;2022-10-31T10:06:22;101896.84;;;14.34;88.00
48606;BME280;8482;54.396;18.590;2022-10-31T10:08:49;101903.75;;;14.36;88.28
48606;BME280;8482;54.396;18.590;2022-10-31T10:22:57;101893.47;;;14.43;87.72
48606;BME280;8482;54.396;18.590;2022-10-31T10:25:37;101892.41;;;14.46;87.33
48606;BME280;8482;54.396;18.590;2022-10-31T10:28:27;101888.13;;;14.43;87.29
48606;BME280;8482;54.396;18.590;2022-10-31T10:33:33;101898.47;;;14.48;87.46
48606;BME280;8482;54.396;18.590;2022-10-31T10:36:08;101887.78;;;14.48;87.48
48606;BME280;8482;54.396;18.590;2022-10-31T10:41:21;101884.75;;;14.52;87.67
48606;BME280;8482;54.396;18.590;2022-10-31T10:43:52;101879.53;;;14.51;87.47
48606;BME280;8482;54.396;18.590;2022-10-31T10:46:43;101879.44;;;14.52;87.73
48606;BME280;8482;54.396;18.590;2022-10-31T10:49:51;101876.53;;;14.55;87.64
48606;BME280;8482;54.396;18.590;2022-10-31T10:58:10;101881.59;;;14.59;87.85
48606;BME280;8482;54.396;18.590;2022-10-31T11:03:05;101886.84;;;14.60;87.92
48606;BME280;8482;54.396;18.590;2022-10-31T11:05:52;101886.84;;;14.60;87.92
48606;BME280;8482;54.396;18.590;2022-10-31T11:08:30;101881.50;;;14.60;87.82
48606;BME280;8482;54.396;18.590;2022-10-31T11:11:24;101868.25;;;14.59;88.01
48606;BME280;8482;54.396;18.590;2022-10-31T11:14:11;101874.47;;;14.59;88.18
48606;BME280;8482;54.396;18.590;2022-10-31T11:16:42;101878.56;;;14.63;88.22
48606;BME280;8482;54.396;18.590;2022-10-31T11:19:21;101880.16;;;14.66;87.96
48606;BME280;8482;54.396;18.590;2022-10-31T11:21:48;101880.16;;;14.66;88.25
48606;BME280;8482;54.396;18.590;2022-10-31T11:24:18;101886.16;;;14.69;88.29
48606;BME280;8482;54.396;18.590;2022-10-31T11:26:48;101871.09;;;14.68;88.30
48606;BME280;8482;54.396;18.590;2022-10-31T11:29:25;101875.66;;;14.66;88.08
48606;BME280;8482;54.396;18.590;2022-10-31T11:31:54;101883.47;;;14.69;88.41
48606;BME280;8482;54.396;18.590;2022-10-31T11:34:35;101874.81;;;14.66;88.17
48606;BME280;8482;54.396;18.590;2022-10-31T11:37:27;101876.44;;;14.68;88.19
48606;BME280;8482;54.396;18.590;2022-10-31T11:39:58;101877.03;;;14.72;88.29
48606;BME280;8482;54.396;18.590;2022-10-31T11:42:36;101864.91;;;14.68;88.32
48606;BME280;8482;54.396;18.590;2022-10-31T11:45:32;101882.28;;;14.74;88.06
48606;BME280;8482;54.396;18.590;2022-10-31T11:48:01;101872.78;;;14.69;88.22
48606;BME280;8482;54.396;18.590;2022-10-31T11:50:40;101882.13;;;14.75;88.08
48606;BME280;8482;54.396;18.590;2022-10-31T11:53:29;101881.41;;;14.73;88.17
48606;BME280;8482;54.396;18.590;2022-10-31T11:56:16;101880.44;;;14.74;88.14
48606;BME280;8482;54.396;18.590;2022-10-31T11:58:42;101877.63;;;14.76;88.38
48606;BME280;8482;54.396;18.590;2022-10-31T12:01:29;101889.03;;;14.78;88.20
48606;BME280;8482;54.396;18.590;2022-10-31T12:04:08;101875.69;;;14.78;88.12
48606;BME280;8482;54.396;18.590;2022-10-31T12:06:41;101881.91;;;14.78;88.16
48606;BME280;8482;54.396;18.590;2022-10-31T12:09:30;101875.97;;;14.75;88.04
48606;BME280;8482;54.396;18.590;2022-10-31T12:15:38;101878.38;;;14.78;87.94
48606;BME280;8482;54.396;18.590;2022-10-31T12:21:17;101866.34;;;14.72;87.56
48606;BME280;8482;54.396;18.590;2022-10-31T12:24:13;101882.00;;;14.77;87.53
48606;BME280;8482;54.396;18.590;2022-10-31T12:27:30;101881.53;;;14.71;87.22
48606;BME280;8482;54.396;18.590;2022-10-31T12:33:11;101876.19;;;14.71;87.01
48606;BME280;8482;54.396;18.590;2022-10-31T12:45:35;101881.63;;;14.70;86.27
48606;BME280;8482;54.396;18.590;2022-10-31T12:59:40;101874.72;;;14.67;86.50
48606;BME280;8482;54.396;18.590;2022-10-31T13:02:24;101871.19;;;14.67;86.63
48606;BME280;8482;54.396;18.590;2022-10-31T13:05:13;101868.41;;;14.68;86.45
48606;BME280;8482;54.396;18.590;2022-10-31T13:07:50;101857.09;;;14.65;86.58
48606;BME280;8482;54.396;18.590;2022-10-31T13:12:57;101852.38;;;14.68;86.82
48606;BME280;8482;54.396;18.590;2022-10-31T13:15:30;101854.22;;;14.68;86.68
48606;BME280;8482;54.396;18.590;2022-10-31T13:18:11;101848.34;;;14.63;86.70
48606;BME280;8482;54.396;18.590;2022-10-31T13:20:48;101858.56;;;14.69;86.86
48606;BME280;8482;54.396;18.590;2022-10-31T13:23:32;101853.34;;;14.67;86.80
48606;BME280;8482;54.396;18.590;2022-10-31T13:26:09;101852.13;;;14.60;86.80
48606;BME280;8482;54.396;18.590;2022-10-31T13:31:43;101863.28;;;14.65;86.72
48606;BME280;8482;54.396;18.590;2022-10-31T13:34:24;101858.81;;;14.66;86.73
48606;BME280;8482;54.396;18.590;2022-10-31T13:45:55;101864.75;;;14.58;85.99
48606;BME280;8482;54.396;18.590;2022-10-31T13:48:40;101872.03;;;14.56;86.08
48606;BME280;8482;54.396;18.590;2022-10-31T13:51:10;101863.63;;;14.49;85.82
48606;BME280;8482;54.396;18.590;2022-10-31T13:53:37;101875.06;;;14.51;86.12
48606;BME280;8482;54.396;18.590;2022-10-31T14:01:28;101864.72;;;14.47;85.89
48606;BME280;8482;54.396;18.590;2022-10-31T14:04:15;101878.09;;;14.47;85.84
48606;BME280;8482;54.396;18.590;2022-10-31T14:07:05;101871.78;;;14.48;86.04
48606;BME280;8482;54.396;18.590;2022-10-31T14:09:38;101875.41;;;14.47;85.95
48606;BME280;8482;54.396;18.590;2022-10-31T14:12:43;101866.66;;;14.45;86.17
48606;BME280;8482;54.396;18.590;2022-10-31T14:15:26;101863.63;;;14.38;85.96
48606;BME280;8482;54.396;18.590;2022-10-31T14:18:06;101881.94;;;14.43;86.14
48606;BME280;8482;54.396;18.590;2022-10-31T14:20:38;101886.31;;;14.44;86.57
48606;BME280;8482;54.396;18.590;2022-10-31T14:23:37;101884.63;;;14.43;86.41
48606;BME280;8482;54.396;18.590;2022-10-31T14:29:23;101878.44;;;14.42;86.59
48606;BME280;8482;54.396;18.590;2022-10-31T14:32:17;101881.22;;;14.40;86.84
48606;BME280;8482;54.396;18.590;2022-10-31T14:34:53;101883.16;;;14.38;86.84
48606;BME280;8482;54.396;18.590;2022-10-31T14:49:33;101870.91;;;14.36;86.52
48606;BME280;8482;54.396;18.590;2022-10-31T14:52:07;101872.59;;;14.37;86.80
48606;BME280;8482;54.396;18.590;2022-10-31T14:54:50;101869.69;;;14.40;86.99
48606;BME280;8482;54.396;18.590;2022-10-31T14:57:27;101870.53;;;14.40;87.03
48606;BME280;8482;54.396;18.590;2022-10-31T15:00:02;101861.56;;;14.41;87.12
48606;BME280;8482;54.396;18.590;2022-10-31T15:05:15;101864.38;;;14.40;86.61
48606;BME280;8482;54.396;18.590;2022-10-31T15:07:57;101866.16;;;14.39;86.86
48606;BME280;8482;54.396;18.590;2022-10-31T15:10:30;101868.00;;;14.39;86.80
48606;BME280;8482;54.396;18.590;2022-10-31T15:13:19;101868.97;;;14.38;87.09
48606;BME280;8482;54.396;18.590;2022-10-31T15:15:48;101873.44;;;14.37;86.92
48606;BME280;8482;54.396;18.590;2022-10-31T15:18:24;101867.13;;;14.38;87.01
48606;BME280;8482;54.396;18.590;2022-10-31T15:20:54;101859.50;;;14.34;87.22
48606;BME280;8482;54.396;18.590;2022-10-31T15:23:27;101869.06;;;14.36;87.50
48606;BME280;8482;54.396;18.590;2022-10-31T15:26:03;101877.06;;;14.36;87.24
48606;BME280;8482;54.396;18.590;2022-10-31T15:28:30;101875.41;;;14.35;87.59